Resolute — WTW2234 — position and weather

sailwx.info

Track history (hours):
 
Tides and Currents Weather Stations Pressure Air Temp Water Temp Dewpoint Dewpoint Depression Visibility Wind Speed Wind Dir Waves Ship Positions

Resolute

Owner: Providence Steamboat Co., PROVIDENCE, RI. More information available from US FCC via Universal Licensing System and Coast Guard Vessel Documentation Center.

Last reported at 2015-Jan-25 13:33 UTC. Time now 2015-Jan-25 14:23 UTC.
Position N 40°38' W 074°04'.

Length 30 m; draft 4 m.

Type: Tug. MMSI: 367091630.

Date/timePositionNaut miles runAvg speedWind from/ knotsBaromVisibWave heightAir tempDewpointWater temp
2015-Jan-25 13:33N 40°38' W 074°04'1 1.0
2015-Jan-25 12:34N 40°39' W 074°03'2 1.7
2015-Jan-25 11:30N 40°40' W 074°05'1 1.0
2015-Jan-25 10:34N 40°40' W 074°04'0 0.0
2015-Jan-25 09:34N 40°40' W 074°04'0 0.0
2015-Jan-25 08:33N 40°40' W 074°04'0 0.3
2015-Jan-25 07:34N 40°40' W 074°04'2 1.8
2015-Jan-25 06:34N 40°39' W 074°02'3 2.7
2015-Jan-25 05:34N 40°39' W 074°05'1 0.7
2015-Jan-25 04:32N 40°39' W 074°06'1 0.9
2015-Jan-25 03:33N 40°39' W 074°07'7 5.6
2015-Jan-25 02:17N 40°33' W 074°13'3 2.7
2015-Jan-25 01:21N 40°31' W 074°15'7 3.7
2015-Jan-24 23:29N 40°38' W 074°12'6 6.0
2015-Jan-24 22:34N 40°39' W 074°05'4 3.6
2015-Jan-24 21:33N 40°39' W 074°10'0 0.1
2015-Jan-24 20:33N 40°38' W 074°10'0 0.0
2015-Jan-24 19:33N 40°38' W 074°10'0 0.0
2015-Jan-24 18:33N 40°38' W 074°10'0 0.0
2015-Jan-24 17:33N 40°38' W 074°10'3 2.5
2015-Jan-24 16:33N 40°39' W 074°07'2 1.7
2015-Jan-24 15:32N 40°40' W 074°08'1 1.5
2015-Jan-24 14:33N 40°42' W 074°08'3 3.1
2015-Jan-24 13:33N 40°39' W 074°08'2 1.6
2015-Jan-24 12:33N 40°38' W 074°10'0 0.0
2015-Jan-24 10:07N 40°38' W 074°10'0 0.0
2015-Jan-24 08:17N 40°38' W 074°10'0 0.0
2015-Jan-24 05:29N 40°38' W 074°10'0 0.0
2015-Jan-24 00:30N 40°38' W 074°10'0 0.0
2015-Jan-23 23:25N 40°38' W 074°10'0 0.0
2015-Jan-23 21:14N 40°38' W 074°10'0 0.0
2015-Jan-23 19:22N 40°38' W 074°10'0 0.0
2015-Jan-23 18:32N 40°38' W 074°10'0 0.0
2015-Jan-23 17:31N 40°38' W 074°10'0 0.0
2015-Jan-23 16:31N 40°38' W 074°10'0 0.0
2015-Jan-23 15:33N 40°38' W 074°10'0 0.0
2015-Jan-23 14:33N 40°38' W 074°10'0 0.0
2015-Jan-23 13:34N 40°38' W 074°10'0 0.0
2015-Jan-23 12:34N 40°38' W 074°10'0 0.0
2015-Jan-23 11:30N 40°38' W 074°10'0 0.0
2015-Jan-23 10:33N 40°38' W 074°10'0 0.0
2015-Jan-23 09:33N 40°38' W 074°10'0 0.0
2015-Jan-23 08:27N 40°38' W 074°10'0 0.0
2015-Jan-23 07:30N 40°38' W 074°10'0 0.0
2015-Jan-23 06:33N 40°38' W 074°10'0 0.0
2015-Jan-23 05:33N 40°38' W 074°10'2 1.4
2015-Jan-23 04:13N 40°38' W 074°12'5 6.8
2015-Jan-23 03:31N 40°39' W 074°06'3 3.4
2015-Jan-23 02:33N 40°40' W 074°02'0 0.0
2015-Jan-23 01:33N 40°40' W 074°02'0 0.0
2015-Jan-23 00:34N 40°40' W 074°02'0 0.0
2015-Jan-22 23:34N 40°40' W 074°02'0 0.0
2015-Jan-22 22:34N 40°40' W 074°02'3 2.7
2015-Jan-22 21:33N 40°43' W 074°01'8 0.4
2015-Jan-21 22:50N 40°50' W 073°57'0 5.6
2015-Jan-21 22:46N 40°50' W 073°58'1 5.3
2015-Jan-21 22:33N 40°49' W 073°58'5 4.7
2015-Jan-21 21:33N 40°45' W 074°01'4 4.4
2015-Jan-21 20:34N 40°40' W 074°02'2 1.5
2015-Jan-21 19:34N 40°39' W 074°03'0 0.0
2015-Jan-21 18:33N 40°39' W 074°03'0 0.0
2015-Jan-21 17:33N 40°39' W 074°03'0 0.0
2015-Jan-21 16:34N 40°39' W 074°03'0 0.0
2015-Jan-21 15:33N 40°39' W 074°03'0 0.2
2015-Jan-21 14:34N 40°39' W 074°03'0 0.1
2015-Jan-21 13:34N 40°39' W 074°03'3 2.9
2015-Jan-21 12:33N 40°39' W 074°07'2 2.2
2015-Jan-21 11:34N 40°40' W 074°09'2 2.0
2015-Jan-21 10:33N 40°39' W 074°07'3 3.4
2015-Jan-21 09:34N 40°38' W 074°03'5 5.4
2015-Jan-21 08:33N 40°38' W 074°10'0 0.0
2015-Jan-21 07:33N 40°38' W 074°10'1 1.4
2015-Jan-21 06:31N 40°38' W 074°12'0 0.0
2015-Jan-21 05:06N 40°38' W 074°12'4 7.1
2015-Jan-21 04:33N 40°39' W 074°07'5 5.4
2015-Jan-21 03:33N 40°42' W 074°02'6 6.4
2015-Jan-21 02:33N 40°47' W 073°55'12 6.0
2015-Jan-21 00:34N 40°54' W 073°42'11 8.6
2015-Jan-20 23:14N 40°59' W 073°29'17 8.0
2015-Jan-20 21:03N 40°59' W 073°06'2 3.8
2015-Jan-20 20:34N 40°57' W 073°05'0 0.0
2015-Jan-20 15:08N 40°57' W 073°05'0 0.0
2015-Jan-20 10:07N 40°57' W 073°04'0 0.3
2015-Jan-20 09:32N 40°57' W 073°05'5 4.9
2015-Jan-20 08:33N 40°60' W 073°10'6 6.4
2015-Jan-20 07:33N 41°00' W 073°19'5 5.2
2015-Jan-20 06:32N 40°60' W 073°25'4 4.5
2015-Jan-20 05:33N 40°58' W 073°31'18 5.6
2015-Jan-20 02:23N 40°48' W 073°50'6 6.4
2015-Jan-20 01:27N 40°46' W 073°57'6 7.1
2015-Jan-20 00:34N 40°40' W 074°01'1 1.3
2015-Jan-19 23:33N 40°39' W 074°02'0 0.0
2015-Jan-19 22:33N 40°39' W 074°02'0 0.4
2015-Jan-19 21:33N 40°39' W 074°03'6 5.7
2015-Jan-19 20:33N 40°39' W 074°10'6 2.8
2015-Jan-19 18:26N 40°33' W 074°14'2 0.6
2015-Jan-19 15:13N 40°35' W 074°13'4 5.2
2015-Jan-19 14:24N 40°39' W 074°11'3 3.6
2015-Jan-19 13:33N 40°39' W 074°07'3 2.9
2015-Jan-19 12:33N 40°38' W 074°03'5 4.8
2015-Jan-19 11:29N 40°38' W 074°10'0 0.0
2015-Jan-19 10:33N 40°38' W 074°10'0 0.0
2015-Jan-19 09:33N 40°38' W 074°10'6 2.0
2015-Jan-19 06:28N 40°33' W 074°15'3 3.2
2015-Jan-19 05:28N 40°36' W 074°12'3 1.4
2015-Jan-19 03:24N 40°38' W 074°10'0 0.0
2015-Jan-19 01:21N 40°38' W 074°10'0 0.0
2015-Jan-18 23:22N 40°38' W 074°10'0 0.0
2015-Jan-18 22:29N 40°38' W 074°10'0 0.0
2015-Jan-18 21:03N 40°38' W 074°10'0 0.0
2015-Jan-18 20:34N 40°38' W 074°10'0 0.0
2015-Jan-18 19:31N 40°38' W 074°10'0 0.0
2015-Jan-18 18:33N 40°38' W 074°10'0 0.0
2015-Jan-18 17:25N 40°38' W 074°10'1 1.3
2015-Jan-18 16:33N 40°39' W 074°09'1 0.7
2015-Jan-18 15:33N 40°40' W 074°09'2 0.5
2015-Jan-18 12:04N 40°38' W 074°10'1 0.5
2015-Jan-18 10:31N 40°39' W 074°11'5 5.5
2015-Jan-18 09:33N 40°39' W 074°04'3 2.9
2015-Jan-18 08:33N 40°40' W 074°00'3 2.9
2015-Jan-18 07:33N 40°40' W 074°04'0 0.5
2015-Jan-18 06:33N 40°40' W 074°05'0 0.4
2015-Jan-18 05:33N 40°40' W 074°04'1 0.5
2015-Jan-18 04:33N 40°40' W 074°05'2 1.7
2015-Jan-18 03:33N 40°39' W 074°06'3 2.4
2015-Jan-18 02:27N 40°38' W 074°10'0 0.0
2015-Jan-18 01:32N 40°38' W 074°10'0 0.0
2015-Jan-18 00:34N 40°38' W 074°10'1 1.4
2015-Jan-17 23:31N 40°38' W 074°12'0 0.1
2015-Jan-17 19:33N 40°39' W 074°11'1 1.2
2015-Jan-17 18:33N 40°38' W 074°10'0 0.0
2015-Jan-17 17:32N 40°38' W 074°10'0 0.0
2015-Jan-17 16:33N 40°38' W 074°10'0 0.0
2015-Jan-17 15:33N 40°38' W 074°10'0 0.0
2015-Jan-17 14:33N 40°38' W 074°10'0 0.0
2015-Jan-17 13:33N 40°38' W 074°10'0 0.4
2015-Jan-17 12:32N 40°38' W 074°09'1 1.4
2015-Jan-17 11:33N 40°40' W 074°09'2 1.5
2015-Jan-17 10:32N 40°38' W 074°10'0 0.1
2015-Jan-17 06:33N 40°39' W 074°09'5 5.2
2015-Jan-17 05:33N 40°40' W 074°03'1 1.0
2015-Jan-17 04:33N 40°40' W 074°04'0 0.0
2015-Jan-17 03:33N 40°40' W 074°04'1 0.8
2015-Jan-17 02:33N 40°40' W 074°05'3 2.7
2015-Jan-17 01:33N 40°38' W 074°03'2 2.1
2015-Jan-17 00:33N 40°40' W 074°04'1 0.6
2015-Jan-16 23:33N 40°40' W 074°05'0 0.2
2015-Jan-16 22:33N 40°40' W 074°05'1 0.9
2015-Jan-16 21:33N 40°41' W 074°04'3 3.1
2015-Jan-16 20:33N 40°40' W 074°00'0 0.0
2015-Jan-16 19:33N 40°40' W 074°00'4 4.3
2015-Jan-16 18:33N 40°39' W 074°06'0 0.0
2015-Jan-16 17:33N 40°39' W 074°06'0 0.0
2015-Jan-16 16:33N 40°39' W 074°06'3 2.8
2015-Jan-16 15:33N 40°40' W 074°03'4 3.9
2015-Jan-16 14:33N 40°41' W 074°08'1 1.0
2015-Jan-16 13:31N 40°42' W 074°09'0 0.0
2015-Jan-16 06:12N 40°42' W 074°09'0 0.2
2015-Jan-16 05:33N 40°42' W 074°09'0 0.2
2015-Jan-16 04:27N 40°42' W 074°09'0 0.0
2015-Jan-15 23:33N 40°42' W 074°09'3 3.4
2015-Jan-15 22:33N 40°39' W 074°10'4 1.3
2015-Jan-15 19:30N 40°35' W 074°13'0 0.0
2015-Jan-15 18:22N 40°35' W 074°12'2 0.7
2015-Jan-15 15:28N 40°33' W 074°14'  
Track history (hours):
 
Tides and Currents Weather Stations Pressure Air Temp Water Temp Dewpoint Dewpoint Depression Visibility Wind Speed Wind Dir Waves Ship Positions

Resolute

Owner: Providence Steamboat Co., PROVIDENCE, RI. More information available from US FCC via Universal Licensing System and Coast Guard Vessel Documentation Center.

Last reported at 2015-Jan-25 13:33 UTC. Time now 2015-Jan-25 14:23 UTC.
Position N 40°38' W 074°04'.

Length 30 m; draft 4 m.

Type: Tug. MMSI: 367091630.

Date/timePositionNaut miles runAvg speedWind from/ knotsBaromVisibWave heightAir tempDewpointWater temp
2015-Jan-25 13:33N 40°38' W 074°04'1 1.0
2015-Jan-25 12:34N 40°39' W 074°03'2 1.7
2015-Jan-25 11:30N 40°40' W 074°05'1 1.0
2015-Jan-25 10:34N 40°40' W 074°04'0 0.0
2015-Jan-25 09:34N 40°40' W 074°04'0 0.0
2015-Jan-25 08:33N 40°40' W 074°04'0 0.3
2015-Jan-25 07:34N 40°40' W 074°04'2 1.8
2015-Jan-25 06:34N 40°39' W 074°02'3 2.7
2015-Jan-25 05:34N 40°39' W 074°05'1 0.7
2015-Jan-25 04:32N 40°39' W 074°06'1 0.9
2015-Jan-25 03:33N 40°39' W 074°07'7 5.6
2015-Jan-25 02:17N 40°33' W 074°13'3 2.7
2015-Jan-25 01:21N 40°31' W 074°15'7 3.7
2015-Jan-24 23:29N 40°38' W 074°12'6 6.0
2015-Jan-24 22:34N 40°39' W 074°05'4 3.6
2015-Jan-24 21:33N 40°39' W 074°10'0 0.1
2015-Jan-24 20:33N 40°38' W 074°10'0 0.0
2015-Jan-24 19:33N 40°38' W 074°10'0 0.0
2015-Jan-24 18:33N 40°38' W 074°10'0 0.0
2015-Jan-24 17:33N 40°38' W 074°10'3 2.5
2015-Jan-24 16:33N 40°39' W 074°07'2 1.7
2015-Jan-24 15:32N 40°40' W 074°08'1 1.5
2015-Jan-24 14:33N 40°42' W 074°08'3 3.1
2015-Jan-24 13:33N 40°39' W 074°08'2 1.6
2015-Jan-24 12:33N 40°38' W 074°10'0 0.0
2015-Jan-24 10:07N 40°38' W 074°10'0 0.0
2015-Jan-24 08:17N 40°38' W 074°10'0 0.0
2015-Jan-24 05:29N 40°38' W 074°10'0 0.0
2015-Jan-24 00:30N 40°38' W 074°10'0 0.0
2015-Jan-23 23:25N 40°38' W 074°10'0 0.0
2015-Jan-23 21:14N 40°38' W 074°10'0 0.0
2015-Jan-23 19:22N 40°38' W 074°10'0 0.0
2015-Jan-23 18:32N 40°38' W 074°10'0 0.0
2015-Jan-23 17:31N 40°38' W 074°10'0 0.0
2015-Jan-23 16:31N 40°38' W 074°10'0 0.0
2015-Jan-23 15:33N 40°38' W 074°10'0 0.0
2015-Jan-23 14:33N 40°38' W 074°10'0 0.0
2015-Jan-23 13:34N 40°38' W 074°10'0 0.0
2015-Jan-23 12:34N 40°38' W 074°10'0 0.0
2015-Jan-23 11:30N 40°38' W 074°10'0 0.0
2015-Jan-23 10:33N 40°38' W 074°10'0 0.0
2015-Jan-23 09:33N 40°38' W 074°10'0 0.0
2015-Jan-23 08:27N 40°38' W 074°10'0 0.0
2015-Jan-23 07:30N 40°38' W 074°10'0 0.0
2015-Jan-23 06:33N 40°38' W 074°10'0 0.0
2015-Jan-23 05:33N 40°38' W 074°10'2 1.4
2015-Jan-23 04:13N 40°38' W 074°12'5 6.8
2015-Jan-23 03:31N 40°39' W 074°06'3 3.4
2015-Jan-23 02:33N 40°40' W 074°02'0 0.0
2015-Jan-23 01:33N 40°40' W 074°02'0 0.0
2015-Jan-23 00:34N 40°40' W 074°02'0 0.0
2015-Jan-22 23:34N 40°40' W 074°02'0 0.0
2015-Jan-22 22:34N 40°40' W 074°02'3 2.7
2015-Jan-22 21:33N 40°43' W 074°01'8 0.4
2015-Jan-21 22:50N 40°50' W 073°57'0 5.6
2015-Jan-21 22:46N 40°50' W 073°58'1 5.3
2015-Jan-21 22:33N 40°49' W 073°58'5 4.7
2015-Jan-21 21:33N 40°45' W 074°01'4 4.4
2015-Jan-21 20:34N 40°40' W 074°02'2 1.5
2015-Jan-21 19:34N 40°39' W 074°03'0 0.0
2015-Jan-21 18:33N 40°39' W 074°03'0 0.0
2015-Jan-21 17:33N 40°39' W 074°03'0 0.0
2015-Jan-21 16:34N 40°39' W 074°03'0 0.0
2015-Jan-21 15:33N 40°39' W 074°03'0 0.2
2015-Jan-21 14:34N 40°39' W 074°03'0 0.1
2015-Jan-21 13:34N 40°39' W 074°03'3 2.9
2015-Jan-21 12:33N 40°39' W 074°07'2 2.2
2015-Jan-21 11:34N 40°40' W 074°09'2 2.0
2015-Jan-21 10:33N 40°39' W 074°07'3 3.4
2015-Jan-21 09:34N 40°38' W 074°03'5 5.4
2015-Jan-21 08:33N 40°38' W 074°10'0 0.0
2015-Jan-21 07:33N 40°38' W 074°10'1 1.4
2015-Jan-21 06:31N 40°38' W 074°12'0 0.0
2015-Jan-21 05:06N 40°38' W 074°12'4 7.1
2015-Jan-21 04:33N 40°39' W 074°07'5 5.4
2015-Jan-21 03:33N 40°42' W 074°02'6 6.4
2015-Jan-21 02:33N 40°47' W 073°55'12 6.0
2015-Jan-21 00:34N 40°54' W 073°42'11 8.6
2015-Jan-20 23:14N 40°59' W 073°29'17 8.0
2015-Jan-20 21:03N 40°59' W 073°06'2 3.8
2015-Jan-20 20:34N 40°57' W 073°05'0 0.0
2015-Jan-20 15:08N 40°57' W 073°05'0 0.0
2015-Jan-20 10:07N 40°57' W 073°04'0 0.3
2015-Jan-20 09:32N 40°57' W 073°05'5 4.9
2015-Jan-20 08:33N 40°60' W 073°10'6 6.4
2015-Jan-20 07:33N 41°00' W 073°19'5 5.2
2015-Jan-20 06:32N 40°60' W 073°25'4 4.5
2015-Jan-20 05:33N 40°58' W 073°31'18 5.6
2015-Jan-20 02:23N 40°48' W 073°50'6 6.4
2015-Jan-20 01:27N 40°46' W 073°57'6 7.1
2015-Jan-20 00:34N 40°40' W 074°01'1 1.3
2015-Jan-19 23:33N 40°39' W 074°02'0 0.0
2015-Jan-19 22:33N 40°39' W 074°02'0 0.4
2015-Jan-19 21:33N 40°39' W 074°03'6 5.7
2015-Jan-19 20:33N 40°39' W 074°10'6 2.8
2015-Jan-19 18:26N 40°33' W 074°14'2 0.6
2015-Jan-19 15:13N 40°35' W 074°13'4 5.2
2015-Jan-19 14:24N 40°39' W 074°11'3 3.6
2015-Jan-19 13:33N 40°39' W 074°07'3 2.9
2015-Jan-19 12:33N 40°38' W 074°03'5 4.8
2015-Jan-19 11:29N 40°38' W 074°10'0 0.0
2015-Jan-19 10:33N 40°38' W 074°10'0 0.0
2015-Jan-19 09:33N 40°38' W 074°10'6 2.0
2015-Jan-19 06:28N 40°33' W 074°15'3 3.2
2015-Jan-19 05:28N 40°36' W 074°12'3 1.4
2015-Jan-19 03:24N 40°38' W 074°10'0 0.0
2015-Jan-19 01:21N 40°38' W 074°10'0 0.0
2015-Jan-18 23:22N 40°38' W 074°10'0 0.0
2015-Jan-18 22:29N 40°38' W 074°10'0 0.0
2015-Jan-18 21:03N 40°38' W 074°10'0 0.0
2015-Jan-18 20:34N 40°38' W 074°10'0 0.0
2015-Jan-18 19:31N 40°38' W 074°10'0 0.0
2015-Jan-18 18:33N 40°38' W 074°10'0 0.0
2015-Jan-18 17:25N 40°38' W 074°10'1 1.3
2015-Jan-18 16:33N 40°39' W 074°09'1 0.7
2015-Jan-18 15:33N 40°40' W 074°09'2 0.5
2015-Jan-18 12:04N 40°38' W 074°10'1 0.5
2015-Jan-18 10:31N 40°39' W 074°11'5 5.5
2015-Jan-18 09:33N 40°39' W 074°04'3 2.9
2015-Jan-18 08:33N 40°40' W 074°00'3 2.9
2015-Jan-18 07:33N 40°40' W 074°04'0 0.5
2015-Jan-18 06:33N 40°40' W 074°05'0 0.4
2015-Jan-18 05:33N 40°40' W 074°04'1 0.5
2015-Jan-18 04:33N 40°40' W 074°05'2 1.7
2015-Jan-18 03:33N 40°39' W 074°06'3 2.4
2015-Jan-18 02:27N 40°38' W 074°10'0 0.0
2015-Jan-18 01:32N 40°38' W 074°10'0 0.0
2015-Jan-18 00:34N 40°38' W 074°10'1 1.4
2015-Jan-17 23:31N 40°38' W 074°12'0 0.1
2015-Jan-17 19:33N 40°39' W 074°11'1 1.2
2015-Jan-17 18:33N 40°38' W 074°10'0 0.0
2015-Jan-17 17:32N 40°38' W 074°10'0 0.0
2015-Jan-17 16:33N 40°38' W 074°10'0 0.0
2015-Jan-17 15:33N 40°38' W 074°10'0 0.0
2015-Jan-17 14:33N 40°38' W 074°10'0 0.0
2015-Jan-17 13:33N 40°38' W 074°10'0 0.4
2015-Jan-17 12:32N 40°38' W 074°09'1 1.4
2015-Jan-17 11:33N 40°40' W 074°09'2 1.5
2015-Jan-17 10:32N 40°38' W 074°10'0 0.1
2015-Jan-17 06:33N 40°39' W 074°09'5 5.2
2015-Jan-17 05:33N 40°40' W 074°03'1 1.0
2015-Jan-17 04:33N 40°40' W 074°04'0 0.0
2015-Jan-17 03:33N 40°40' W 074°04'1 0.8
2015-Jan-17 02:33N 40°40' W 074°05'3 2.7
2015-Jan-17 01:33N 40°38' W 074°03'2 2.1
2015-Jan-17 00:33N 40°40' W 074°04'1 0.6
2015-Jan-16 23:33N 40°40' W 074°05'0 0.2
2015-Jan-16 22:33N 40°40' W 074°05'1 0.9
2015-Jan-16 21:33N 40°41' W 074°04'3 3.1
2015-Jan-16 20:33N 40°40' W 074°00'0 0.0
2015-Jan-16 19:33N 40°40' W 074°00'4 4.3
2015-Jan-16 18:33N 40°39' W 074°06'0 0.0
2015-Jan-16 17:33N 40°39' W 074°06'0 0.0
2015-Jan-16 16:33N 40°39' W 074°06'3 2.8
2015-Jan-16 15:33N 40°40' W 074°03'4 3.9
2015-Jan-16 14:33N 40°41' W 074°08'1 1.0
2015-Jan-16 13:31N 40°42' W 074°09'0 0.0
2015-Jan-16 06:12N 40°42' W 074°09'0 0.2
2015-Jan-16 05:33N 40°42' W 074°09'0 0.2
2015-Jan-16 04:27N 40°42' W 074°09'0 0.0
2015-Jan-15 23:33N 40°42' W 074°09'3 3.4
2015-Jan-15 22:33N 40°39' W 074°10'4 1.3
2015-Jan-15 19:30N 40°35' W 074°13'0 0.0
2015-Jan-15 18:22N 40°35' W 074°12'2 0.7
2015-Jan-15 15:28N 40°33' W 074°14'  

Dump ship's entire track history